sensor_id;sensor_type;location;lat;lon;timestamp;pressure;altitude;pressure_sealevel;temperature;humidity
20455;BME280;10386;54.314;10.022;2024-02-26T00:02:03;99771.81;;;1.84;100.00
20455;BME280;10386;54.314;10.022;2024-02-26T00:04:30;99768.19;;;1.85;100.00
20455;BME280;10386;54.314;10.022;2024-02-26T00:06:57;99766.66;;;1.97;100.00
20455;BME280;10386;54.314;10.022;2024-02-26T00:09:25;99777.66;;;1.75;100.00
20455;BME280;10386;54.314;10.022;2024-02-26T00:11:51;99778.66;;;1.73;100.00
20455;BME280;10386;54.314;10.022;2024-02-26T00:14:18;99775.28;;;1.86;100.00
20455;BME280;10386;54.314;10.022;2024-02-26T00:16:45;99774.41;;;1.86;100.00
20455;BME280;10386;54.314;10.022;2024-02-26T00:19:12;99775.91;;;1.91;100.00
20455;BME280;10386;54.314;10.022;2024-02-26T00:21:42;99761.28;;;1.81;100.00
20455;BME280;10386;54.314;10.022;2024-02-26T00:24:09;99770.72;;;1.88;100.00
20455;BME280;10386;54.314;10.022;2024-02-26T00:26:35;99758.13;;;1.90;100.00
20455;BME280;10386;54.314;10.022;2024-02-26T00:29:02;99775.75;;;1.60;100.00
20455;BME280;10386;54.314;10.022;2024-02-26T00:31:29;99784.09;;;1.37;100.00
20455;BME280;10386;54.314;10.022;2024-02-26T00:33:56;99768.06;;;1.37;100.00
20455;BME280;10386;54.314;10.022;2024-02-26T00:36:23;99778.59;;;1.24;100.00
20455;BME280;10386;54.314;10.022;2024-02-26T00:38:50;99780.84;;;1.14;100.00
20455;BME280;10386;54.314;10.022;2024-02-26T00:41:18;99776.13;;;1.19;100.00
20455;BME280;10386;54.314;10.022;2024-02-26T00:43:45;99773.09;;;1.27;100.00
20455;BME280;10386;54.314;10.022;2024-02-26T00:52:02;99870.06;;;1.47;100.00
20455;BME280;10386;54.314;10.022;2024-02-26T00:54:29;99794.78;;;1.54;100.00
20455;BME280;10386;54.314;10.022;2024-02-26T00:56:56;99789.75;;;1.48;100.00
20455;BME280;10386;54.314;10.022;2024-02-26T00:59:22;99781.69;;;1.50;100.00
20455;BME280;10386;54.314;10.022;2024-02-26T01:01:49;99784.41;;;1.48;100.00
20455;BME280;10386;54.314;10.022;2024-02-26T01:04:16;99783.63;;;1.46;100.00
20455;BME280;10386;54.314;10.022;2024-02-26T01:06:43;99783.78;;;1.27;100.00
20455;BME280;10386;54.314;10.022;2024-02-26T01:09:10;99784.09;;;1.37;100.00
20455;BME280;10386;54.314;10.022;2024-02-26T01:11:37;99773.50;;;1.53;100.00
20455;BME280;10386;54.314;10.022;2024-02-26T01:14:04;99755.25;;;1.61;100.00
20455;BME280;10386;54.314;10.022;2024-02-26T01:16:30;99757.13;;;1.59;100.00
20455;BME280;10386;54.314;10.022;2024-02-26T01:18:58;99760.97;;;1.53;100.00
20455;BME280;10386;54.314;10.022;2024-02-26T01:21:25;99756.91;;;1.46;100.00
20455;BME280;10386;54.314;10.022;2024-02-26T01:23:55;99754.78;;;1.53;100.00
20455;BME280;10386;54.314;10.022;2024-02-26T01:26:22;99741.19;;;1.40;100.00
20455;BME280;10386;54.314;10.022;2024-02-26T01:28:50;99728.75;;;1.23;100.00
20455;BME280;10386;54.314;10.022;2024-02-26T01:31:16;99719.00;;;1.22;100.00
20455;BME280;10386;54.314;10.022;2024-02-26T01:33:43;99716.41;;;1.20;100.00
20455;BME280;10386;54.314;10.022;2024-02-26T01:36:11;99714.84;;;1.16;100.00
20455;BME280;10386;54.314;10.022;2024-02-26T01:38:38;99721.13;;;1.15;100.00
20455;BME280;10386;54.314;10.022;2024-02-26T01:41:05;99720.75;;;1.06;100.00
20455;BME280;10386;54.314;10.022;2024-02-26T01:43:33;99741.31;;;0.87;100.00
20455;BME280;10386;54.314;10.022;2024-02-26T01:46:00;99736.41;;;0.78;100.00
20455;BME280;10386;54.314;10.022;2024-02-26T01:48:27;99761.50;;;0.74;100.00
20455;BME280;10386;54.314;10.022;2024-02-26T01:50:54;99756.66;;;0.82;100.00
20455;BME280;10386;54.314;10.022;2024-02-26T01:53:21;99747.69;;;0.66;100.00
20455;BME280;10386;54.314;10.022;2024-02-26T01:55:48;99750.50;;;0.63;100.00
20455;BME280;10386;54.314;10.022;2024-02-26T01:58:15;99768.78;;;0.53;100.00
20455;BME280;10386;54.314;10.022;2024-02-26T02:00:43;99765.97;;;0.56;100.00
20455;BME280;10386;54.314;10.022;2024-02-26T02:03:10;99757.50;;;0.65;100.00
20455;BME280;10386;54.314;10.022;2024-02-26T02:05:37;99761.50;;;0.74;100.00
20455;BME280;10386;54.314;10.022;2024-02-26T02:08:10;99752.56;;;0.75;100.00
20455;BME280;10386;54.314;10.022;2024-02-26T02:10:38;99744.34;;;0.79;100.00
20455;BME280;10386;54.314;10.022;2024-02-26T02:13:06;99738.66;;;0.68;100.00
20455;BME280;10386;54.314;10.022;2024-02-26T02:15:33;99744.72;;;0.72;100.00
20455;BME280;10386;54.314;10.022;2024-02-26T02:18:00;99740.59;;;0.65;100.00
20455;BME280;10386;54.314;10.022;2024-02-26T02:20:34;99734.31;;;0.66;100.00
20455;BME280;10386;54.314;10.022;2024-02-26T02:23:01;99730.38;;;0.56;100.00
20455;BME280;10386;54.314;10.022;2024-02-26T02:25:28;99738.69;;;0.50;100.00
20455;BME280;10386;54.314;10.022;2024-02-26T02:27:55;99732.91;;;0.40;100.00
20455;BME280;10386;54.314;10.022;2024-02-26T02:30:26;99711.34;;;0.45;100.00
20455;BME280;10386;54.314;10.022;2024-02-26T02:32:55;99711.66;;;0.39;100.00
20455;BME280;10386;54.314;10.022;2024-02-26T02:35:24;99717.03;;;0.37;100.00
20455;BME280;10386;54.314;10.022;2024-02-26T02:37:57;99601.34;;;0.38;100.00
20455;BME280;10386;54.314;10.022;2024-02-26T02:40:25;100406.28;;;0.45;100.00
20455;BME280;10386;54.314;10.022;2024-02-26T02:42:52;100399.25;;;0.43;100.00
20455;BME280;10386;54.314;10.022;2024-02-26T02:45:19;100400.63;;;0.30;100.00
20455;BME280;10386;54.314;10.022;2024-02-26T02:47:46;100398.22;;;0.22;100.00
20455;BME280;10386;54.314;10.022;2024-02-26T02:50:12;100403.56;;;0.22;100.00
20455;BME280;10386;54.314;10.022;2024-02-26T02:52:39;100406.09;;;0.27;100.00
20455;BME280;10386;54.314;10.022;2024-02-26T02:55:06;100407.72;;;0.31;100.00
20455;BME280;10386;54.314;10.022;2024-02-26T02:57:33;100331.34;;;0.27;100.00
20455;BME280;10386;54.314;10.022;2024-02-26T03:00:00;100334.72;;;0.32;100.00
20455;BME280;10386;54.314;10.022;2024-02-26T03:02:27;100339.13;;;0.33;100.00
20455;BME280;10386;54.314;10.022;2024-02-26T03:04:54;100328.63;;;0.28;100.00
20455;BME280;10386;54.314;10.022;2024-02-26T03:07:21;100336.69;;;0.27;100.00
20455;BME280;10386;54.314;10.022;2024-02-26T03:09:47;100331.13;;;0.33;100.00
20455;BME280;10386;54.314;10.022;2024-02-26T03:12:14;100337.06;;;0.39;100.00
20455;BME280;10386;54.314;10.022;2024-02-26T03:14:41;100336.91;;;0.44;100.00
20455;BME280;10386;54.314;10.022;2024-02-26T03:17:08;100336.91;;;0.44;100.00
20455;BME280;10386;54.314;10.022;2024-02-26T03:19:35;100331.25;;;0.30;100.00
20455;BME280;10386;54.314;10.022;2024-02-26T03:22:02;100334.38;;;0.18;100.00
20455;BME280;10386;54.314;10.022;2024-02-26T03:24:29;100331.72;;;0.18;100.00
20455;BME280;10386;54.314;10.022;2024-02-26T03:26:56;100336.03;;;0.20;100.00
20455;BME280;10386;54.314;10.022;2024-02-26T03:29:23;100334.59;;;0.12;100.00
20455;BME280;10386;54.314;10.022;2024-02-26T03:31:50;100334.75;;;0.07;100.00
20455;BME280;10386;54.314;10.022;2024-02-26T03:34:16;100340.31;;;0.01;100.00
20455;BME280;10386;54.314;10.022;2024-02-26T03:36:45;100345.91;;;0.18;100.00
20455;BME280;10386;54.314;10.022;2024-02-26T03:39:12;100349.13;;;0.28;100.00
20455;BME280;10386;54.314;10.022;2024-02-26T03:41:39;100341.56;;;0.16;100.00
20455;BME280;10386;54.314;10.022;2024-02-26T03:44:06;100346.44;;;0.05;100.00
20455;BME280;10386;54.314;10.022;2024-02-26T03:46:32;100345.00;;;-0.05;100.00
20455;BME280;10386;54.314;10.022;2024-02-26T03:48:59;100350.03;;;-0.20;100.00
20455;BME280;10386;54.314;10.022;2024-02-26T03:51:26;100344.38;;;-0.11;100.00
20455;BME280;10386;54.314;10.022;2024-02-26T03:53:58;100358.78;;;-0.17;100.00
20455;BME280;10386;54.314;10.022;2024-02-26T03:56:25;100358.44;;;-0.08;100.00
20455;BME280;10386;54.314;10.022;2024-02-26T03:58:53;100365.47;;;-0.05;100.00
20455;BME280;10386;54.314;10.022;2024-02-26T04:01:20;100371.56;;;-0.02;100.00
20455;BME280;10386;54.314;10.022;2024-02-26T04:03:47;100369.06;;;-0.06;100.00
20455;BME280;10386;54.314;10.022;2024-02-26T04:06:14;100370.25;;;-0.15;100.00
20455;BME280;10386;54.314;10.022;2024-02-26T04:08:41;100378.44;;;-0.19;100.00
20455;BME280;10386;54.314;10.022;2024-02-26T04:11:08;100378.00;;;-0.07;100.00
20455;BME280;10386;54.314;10.022;2024-02-26T04:13:36;100375.16;;;-0.03;100.00
20455;BME280;10386;54.314;10.022;2024-02-26T04:16:05;100374.97;;;0.03;100.00
20455;BME280;10386;54.314;10.022;2024-02-26T04:18:33;100371.56;;;-0.02;100.00
20455;BME280;10386;54.314;10.022;2024-02-26T04:21:00;100378.56;;;0.02;100.00
20455;BME280;10386;54.314;10.022;2024-02-26T04:23:27;100377.78;;;-0.02;100.00
20455;BME280;10386;54.314;10.022;2024-02-26T04:25:54;100379.53;;;-0.01;100.00
20455;BME280;10386;54.314;10.022;2024-02-26T04:28:20;100381.38;;;-0.03;100.00
20455;BME280;10386;54.314;10.022;2024-02-26T04:30:47;100388.22;;;-0.20;100.00
20455;BME280;10386;54.314;10.022;2024-02-26T04:33:14;100390.84;;;-0.18;100.00
20455;BME280;10386;54.314;10.022;2024-02-26T04:35:42;100402.47;;;-0.21;100.00
20455;BME280;10386;54.314;10.022;2024-02-26T04:38:08;100397.25;;;-0.24;100.00
20455;BME280;10386;54.314;10.022;2024-02-26T04:40:35;100398.78;;;-0.17;100.00
20455;BME280;10386;54.314;10.022;2024-02-26T04:43:02;100400.41;;;-0.13;100.00
20455;BME280;10386;54.314;10.022;2024-02-26T04:45:29;100398.56;;;-0.11;100.00
20455;BME280;10386;54.314;10.022;2024-02-26T04:47:56;100403.84;;;-0.09;100.00
20455;BME280;10386;54.314;10.022;2024-02-26T04:50:23;100412.69;;;-0.07;100.00
20455;BME280;10386;54.314;10.022;2024-02-26T04:52:50;100416.31;;;-0.10;100.00
20455;BME280;10386;54.314;10.022;2024-02-26T04:55:17;100418.75;;;-0.04;100.00
20455;BME280;10386;54.314;10.022;2024-02-26T04:57:43;100435.06;;;-0.11;100.00
20455;BME280;10386;54.314;10.022;2024-02-26T05:00:11;100436.00;;;-0.14;100.00
20455;BME280;10386;54.314;10.022;2024-02-26T05:02:38;100445.47;;;-0.30;100.00
20455;BME280;10386;54.314;10.022;2024-02-26T05:05:05;100449.66;;;-0.23;100.00
20455;BME280;10386;54.314;10.022;2024-02-26T05:07:32;100447.59;;;-0.15;100.00
20455;BME280;10386;54.314;10.022;2024-02-26T05:09:59;100458.38;;;-0.18;100.00
20455;BME280;10386;54.314;10.022;2024-02-26T05:12:26;100454.03;;;-0.20;100.00
20455;BME280;10386;54.314;10.022;2024-02-26T05:14:53;100459.00;;;-0.36;100.00
20455;BME280;10386;54.314;10.022;2024-02-26T05:17:20;100458.69;;;-0.53;100.00
20455;BME280;10386;54.314;10.022;2024-02-26T05:19:50;100448.97;;;-0.55;100.00
20455;BME280;10386;54.314;10.022;2024-02-26T05:22:17;100452.66;;;-0.59;100.00
20455;BME280;10386;54.314;10.022;2024-02-26T05:24:44;100450.22;;;-0.65;100.00
20455;BME280;10386;54.314;10.022;2024-02-26T05:27:11;100453.16;;;-0.47;100.00
20455;BME280;10386;54.314;10.022;2024-02-26T05:29:38;100458.53;;;-0.48;100.00
20455;BME280;10386;54.314;10.022;2024-02-26T05:32:06;100458.50;;;-0.47;100.00
20455;BME280;10386;54.314;10.022;2024-02-26T05:34:32;100456.44;;;-0.39;100.00
20455;BME280;10386;54.314;10.022;2024-02-26T05:37:00;100453.88;;;-0.42;100.00
20455;BME280;10386;54.314;10.022;2024-02-26T05:39:27;100435.19;;;-0.68;100.00
20455;BME280;10386;54.314;10.022;2024-02-26T05:41:54;100431.84;;;-0.74;100.00
20455;BME280;10386;54.314;10.022;2024-02-26T05:44:22;100434.41;;;-0.71;100.00
20455;BME280;10386;54.314;10.022;2024-02-26T05:46:49;100435.59;;;-0.80;100.00
20455;BME280;10386;54.314;10.022;2024-02-26T05:49:16;100439.91;;;-0.76;100.00
20455;BME280;10386;54.314;10.022;2024-02-26T05:51:45;100443.44;;;-0.75;100.00
20455;BME280;10386;54.314;10.022;2024-02-26T05:54:12;100448.75;;;-0.75;100.00
20455;BME280;10386;54.314;10.022;2024-02-26T05:56:39;100446.06;;;-0.74;100.00
20455;BME280;10386;54.314;10.022;2024-02-26T05:59:06;100441.25;;;-0.63;100.00
20455;BME280;10386;54.314;10.022;2024-02-26T06:01:33;100448.13;;;-0.56;100.00
20455;BME280;10386;54.314;10.022;2024-02-26T06:04:00;100451.19;;;-0.68;100.00
20455;BME280;10386;54.314;10.022;2024-02-26T06:06:27;100456.00;;;-0.79;100.00
20455;BME280;10386;54.314;10.022;2024-02-26T06:08:54;100460.75;;;-0.62;100.00
20455;BME280;10386;54.314;10.022;2024-02-26T06:11:21;100462.16;;;-0.77;100.00
20455;BME280;10386;54.314;10.022;2024-02-26T06:13:49;100468.22;;;-0.73;100.00
20455;BME280;10386;54.314;10.022;2024-02-26T06:16:16;100463.72;;;-0.71;100.00
20455;BME280;10386;54.314;10.022;2024-02-26T06:18:43;100478.66;;;-0.66;100.00
20455;BME280;10386;54.314;10.022;2024-02-26T06:21:11;100470.13;;;-0.77;100.00
20455;BME280;10386;54.314;10.022;2024-02-26T06:23:39;100471.16;;;-0.81;100.00
20455;BME280;10386;54.314;10.022;2024-02-26T06:26:06;100472.72;;;-0.74;100.00
20455;BME280;10386;54.314;10.022;2024-02-26T06:28:34;100472.81;;;-0.77;100.00
20455;BME280;10386;54.314;10.022;2024-02-26T06:31:02;100477.16;;;-0.74;100.00
20455;BME280;10386;54.314;10.022;2024-02-26T06:33:29;100477.22;;;-0.76;100.00
20455;BME280;10386;54.314;10.022;2024-02-26T06:35:56;100480.50;;;-0.68;100.00
20455;BME280;10386;54.314;10.022;2024-02-26T06:38:23;100483.00;;;-0.63;100.00
20455;BME280;10386;54.314;10.022;2024-02-26T06:40:50;100488.88;;;-0.52;100.00
20455;BME280;10386;54.314;10.022;2024-02-26T06:43:17;100489.78;;;-0.53;100.00
20455;BME280;10386;54.314;10.022;2024-02-26T06:45:44;100497.84;;;-0.55;100.00
20455;BME280;10386;54.314;10.022;2024-02-26T06:48:11;100493.00;;;-0.42;100.00
20455;BME280;10386;54.314;10.022;2024-02-26T06:50:39;100493.25;;;-0.24;100.00
20455;BME280;10386;54.314;10.022;2024-02-26T06:53:06;100485.41;;;-0.03;100.00
20455;BME280;10386;54.314;10.022;2024-02-26T06:55:33;100489.50;;;0.07;100.00
20455;BME280;10386;54.314;10.022;2024-02-26T06:58:00;100496.34;;;0.16;100.00
20455;BME280;10386;54.314;10.022;2024-02-26T07:00:27;100493.94;;;0.33;100.00
20455;BME280;10386;54.314;10.022;2024-02-26T07:02:54;100502.66;;;0.38;100.00
20455;BME280;10386;54.314;10.022;2024-02-26T07:05:21;100513.38;;;0.36;100.00
20455;BME280;10386;54.314;10.022;2024-02-26T07:07:47;100515.06;;;0.39;100.00
20455;BME280;10386;54.314;10.022;2024-02-26T07:10:14;100509.59;;;0.43;100.00
20455;BME280;10386;54.314;10.022;2024-02-26T07:12:41;100517.41;;;0.48;100.00
20455;BME280;10386;54.314;10.022;2024-02-26T07:15:09;100519.84;;;0.55;100.00
20455;BME280;10386;54.314;10.022;2024-02-26T07:17:36;100527.84;;;0.55;100.00
20455;BME280;10386;54.314;10.022;2024-02-26T07:20:03;100526.03;;;0.56;100.00
20455;BME280;10386;54.314;10.022;2024-02-26T07:22:36;100512.22;;;0.68;100.00
20455;BME280;10386;54.314;10.022;2024-02-26T07:25:03;100523.09;;;0.63;100.00
20455;BME280;10386;54.314;10.022;2024-02-26T07:27:30;100521.97;;;0.93;100.00
20455;BME280;10386;54.314;10.022;2024-02-26T07:29:57;100522.88;;;0.92;100.00
20455;BME280;10386;54.314;10.022;2024-02-26T07:32:23;100530.47;;;0.80;100.00
20455;BME280;10386;54.314;10.022;2024-02-26T07:34:50;100527.50;;;0.89;100.00
20455;BME280;10386;54.314;10.022;2024-02-26T07:37:17;100537.50;;;1.07;100.00
20455;BME280;10386;54.314;10.022;2024-02-26T07:39:44;100534.00;;;1.05;100.00
20455;BME280;10386;54.314;10.022;2024-02-26T07:42:11;100526.78;;;1.30;100.00
20455;BME280;10386;54.314;10.022;2024-02-26T07:44:38;100521.63;;;1.02;100.00
20455;BME280;10386;54.314;10.022;2024-02-26T07:47:07;100520.75;;;1.25;100.00
20455;BME280;10386;54.314;10.022;2024-02-26T07:49:33;100528.13;;;1.18;100.00
20455;BME280;10386;54.314;10.022;2024-02-26T07:52:04;100532.78;;;1.36;100.00
20455;BME280;10386;54.314;10.022;2024-02-26T07:54:31;100538.94;;;1.38;100.00
20455;BME280;10386;54.314;10.022;2024-02-26T07:56:58;100548.72;;;1.39;100.00
20455;BME280;10386;54.314;10.022;2024-02-26T07:59:25;100537.56;;;1.49;100.00
20455;BME280;10386;54.314;10.022;2024-02-26T08:01:52;100535.81;;;1.48;100.00
20455;BME280;10386;54.314;10.022;2024-02-26T08:04:24;100534.44;;;1.38;100.00
20455;BME280;10386;54.314;10.022;2024-02-26T08:06:52;100538.56;;;1.24;100.00
20455;BME280;10386;54.314;10.022;2024-02-26T08:09:19;100536.72;;;1.49;100.00
20455;BME280;10386;54.314;10.022;2024-02-26T08:11:46;100536.09;;;1.64;100.00
20455;BME280;10386;54.314;10.022;2024-02-26T08:14:13;100543.81;;;1.50;100.00
20455;BME280;10386;54.314;10.022;2024-02-26T08:16:40;100553.44;;;1.54;100.00
20455;BME280;10386;54.314;10.022;2024-02-26T08:19:07;100562.78;;;1.65;100.00
20455;BME280;10386;54.314;10.022;2024-02-26T08:21:34;100555.56;;;1.67;100.00
20455;BME280;10386;54.314;10.022;2024-02-26T08:24:01;100554.19;;;1.57;100.00
20455;BME280;10386;54.314;10.022;2024-02-26T08:26:32;100546.59;;;1.68;100.00
20455;BME280;10386;54.314;10.022;2024-02-26T08:28:58;100551.72;;;1.53;100.00
20455;BME280;10386;54.314;10.022;2024-02-26T08:31:25;100547.63;;;1.66;100.00
20455;BME280;10386;54.314;10.022;2024-02-26T08:33:53;100546.13;;;1.80;100.00
20455;BME280;10386;54.314;10.022;2024-02-26T08:36:21;100538.28;;;1.76;100.00
20455;BME280;10386;54.314;10.022;2024-02-26T08:38:48;100542.41;;;1.84;100.00
20455;BME280;10386;54.314;10.022;2024-02-26T08:41:15;100537.91;;;1.85;100.00
20455;BME280;10386;54.314;10.022;2024-02-26T08:43:42;100524.22;;;1.92;100.00
20455;BME280;10386;54.314;10.022;2024-02-26T08:46:09;100526.41;;;1.83;100.00
20455;BME280;10386;54.314;10.022;2024-02-26T08:48:37;100514.44;;;2.13;100.00
20455;BME280;10386;54.314;10.022;2024-02-26T08:51:06;100511.56;;;2.17;100.00
20455;BME280;10386;54.314;10.022;2024-02-26T08:53:33;100513.16;;;2.21;100.00
20455;BME280;10386;54.314;10.022;2024-02-26T08:56:09;100522.88;;;2.24;100.00
20455;BME280;10386;54.314;10.022;2024-02-26T08:58:35;100513.50;;;2.14;100.00
20455;BME280;10386;54.314;10.022;2024-02-26T09:01:02;100515.41;;;2.32;100.00
20455;BME280;10386;54.314;10.022;2024-02-26T09:03:29;100524.09;;;2.17;100.00
20455;BME280;10386;54.314;10.022;2024-02-26T09:05:57;100513.31;;;2.38;100.00
20455;BME280;10386;54.314;10.022;2024-02-26T09:08:24;100517.28;;;2.50;100.00
20455;BME280;10386;54.314;10.022;2024-02-26T09:10:51;100506.09;;;2.60;100.00
20455;BME280;10386;54.314;10.022;2024-02-26T09:13:18;100522.00;;;2.43;100.00
20455;BME280;10386;54.314;10.022;2024-02-26T09:15:45;100522.22;;;2.59;100.00
20455;BME280;10386;54.314;10.022;2024-02-26T09:18:12;100510.38;;;2.64;100.00
20455;BME280;10386;54.314;10.022;2024-02-26T09:20:40;100516.59;;;2.65;100.00
20455;BME280;10386;54.314;10.022;2024-02-26T09:23:07;100509.81;;;2.96;100.00
20455;BME280;10386;54.314;10.022;2024-02-26T09:25:34;100513.22;;;2.99;100.00
20455;BME280;10386;54.314;10.022;2024-02-26T09:28:01;100511.25;;;3.03;100.00
20455;BME280;10386;54.314;10.022;2024-02-26T09:30:28;100513.75;;;2.87;100.00
20455;BME280;10386;54.314;10.022;2024-02-26T09:32:55;100509.47;;;3.03;100.00
20455;BME280;10386;54.314;10.022;2024-02-26T09:35:22;100511.56;;;3.15;100.00
20455;BME280;10386;54.314;10.022;2024-02-26T09:37:49;100506.06;;;3.18;100.00
20455;BME280;10386;54.314;10.022;2024-02-26T09:40:16;100502.22;;;3.42;100.00
20455;BME280;10386;54.314;10.022;2024-02-26T09:42:46;100515.50;;;3.45;100.00
20455;BME280;10386;54.314;10.022;2024-02-26T09:45:18;100509.34;;;3.43;100.00
20455;BME280;10386;54.314;10.022;2024-02-26T09:47:47;100524.28;;;3.49;100.00
20455;BME280;10386;54.314;10.022;2024-02-26T09:50:17;100531.59;;;3.64;100.00
20455;BME280;10386;54.314;10.022;2024-02-26T09:52:44;100539.44;;;3.50;100.00
20455;BME280;10386;54.314;10.022;2024-02-26T09:55:11;100531.84;;;3.76;100.00
20455;BME280;10386;54.314;10.022;2024-02-26T09:57:45;100539.34;;;3.88;100.00
20455;BME280;10386;54.314;10.022;2024-02-26T10:00:19;100540.56;;;3.81;100.00
20455;BME280;10386;54.314;10.022;2024-02-26T10:02:47;100548.56;;;3.83;100.00
20455;BME280;10386;54.314;10.022;2024-02-26T10:05:17;100549.66;;;3.79;100.00
20455;BME280;10386;54.314;10.022;2024-02-26T10:07:46;100552.38;;;3.77;100.00
20455;BME280;10386;54.314;10.022;2024-02-26T10:10:14;100560.13;;;4.02;100.00
20455;BME280;10386;54.314;10.022;2024-02-26T10:12:41;100562.66;;;4.04;100.00
20455;BME280;10386;54.314;10.022;2024-02-26T10:15:09;100563.88;;;4.16;100.00
20455;BME280;10386;54.314;10.022;2024-02-26T10:17:36;100555.84;;;4.16;100.00
20455;BME280;10386;54.314;10.022;2024-02-26T10:20:18;100573.19;;;4.09;100.00
20455;BME280;10386;54.314;10.022;2024-02-26T10:22:46;100588.56;;;4.24;100.00
20455;BME280;10386;54.314;10.022;2024-02-26T10:25:13;100592.25;;;4.21;100.00
20455;BME280;10386;54.314;10.022;2024-02-26T10:27:41;100603.56;;;4.28;100.00
20455;BME280;10386;54.314;10.022;2024-02-26T10:30:18;100614.03;;;4.15;100.00
20455;BME280;10386;54.314;10.022;2024-02-26T10:32:46;100610.81;;;4.09;100.00
20455;BME280;10386;54.314;10.022;2024-02-26T10:35:14;100622.19;;;4.32;100.00
20455;BME280;10386;54.314;10.022;2024-02-26T10:37:42;100616.34;;;4.41;100.00
20455;BME280;10386;54.314;10.022;2024-02-26T10:40:12;100628.91;;;4.41;100.00
20455;BME280;10386;54.314;10.022;2024-02-26T10:42:41;100627.94;;;4.42;100.00
20455;BME280;10386;54.314;10.022;2024-02-26T10:45:09;100631.09;;;4.14;100.00
20455;BME280;10386;54.314;10.022;2024-02-26T10:47:36;100636.91;;;4.42;100.00
20455;BME280;10386;54.314;10.022;2024-02-26T10:50:05;100636.94;;;4.41;100.00
20455;BME280;10386;54.314;10.022;2024-02-26T10:52:34;100641.97;;;4.48;100.00
20455;BME280;10386;54.314;10.022;2024-02-26T10:55:02;100639.59;;;4.42;100.00
20455;BME280;10386;54.314;10.022;2024-02-26T10:57:50;100625.75;;;4.50;100.00
20455;BME280;10386;54.314;10.022;2024-02-26T11:00:19;100620.47;;;4.48;100.00
20455;BME280;10386;54.314;10.022;2024-02-26T11:02:46;100622.22;;;4.49;100.00
20455;BME280;10386;54.314;10.022;2024-02-26T11:05:14;100628.69;;;4.45;100.00
20455;BME280;10386;54.314;10.022;2024-02-26T11:07:41;100633.09;;;4.46;100.00
20455;BME280;10386;54.314;10.022;2024-02-26T11:10:09;100636.44;;;4.51;100.00
20455;BME280;10386;54.314;10.022;2024-02-26T11:12:39;100625.91;;;4.47;100.00
20455;BME280;10386;54.314;10.022;2024-02-26T11:15:06;100620.31;;;4.68;100.00
20455;BME280;10386;54.314;10.022;2024-02-26T11:17:35;100614.94;;;4.51;100.00
20455;BME280;10386;54.314;10.022;2024-02-26T11:20:04;100625.50;;;4.37;100.00
20455;BME280;10386;54.314;10.022;2024-02-26T11:22:32;100629.31;;;4.50;100.00
20455;BME280;10386;54.314;10.022;2024-02-26T11:25:00;100621.75;;;4.75;100.00
20455;BME280;10386;54.314;10.022;2024-02-26T11:27:42;100710.00;;;4.67;100.00
20455;BME280;10386;54.314;10.022;2024-02-26T11:30:12;100698.31;;;4.85;100.00
20455;BME280;10386;54.314;10.022;2024-02-26T11:32:40;100692.75;;;4.71;100.00
20455;BME280;10386;54.314;10.022;2024-02-26T11:35:07;100691.84;;;4.89;100.00
20455;BME280;10386;54.314;10.022;2024-02-26T11:37:37;100693.09;;;4.99;100.00
20455;BME280;10386;54.314;10.022;2024-02-26T11:40:11;100703.81;;;5.01;100.00
20455;BME280;10386;54.314;10.022;2024-02-26T11:42:44;100693.31;;;5.13;100.00
20455;BME280;10386;54.314;10.022;2024-02-26T11:48:16;100696.53;;;5.37;100.00
20455;BME280;10386;54.314;10.022;2024-02-26T11:50:49;100703.41;;;5.42;100.00
20455;BME280;10386;54.314;10.022;2024-02-26T11:53:28;100703.56;;;5.56;100.00
20455;BME280;10386;54.314;10.022;2024-02-26T11:58:46;100731.41;;;6.06;100.00
20455;BME280;10386;54.314;10.022;2024-02-26T12:01:35;100758.84;;;5.97;100.00
20455;BME280;10386;54.314;10.022;2024-02-26T12:04:04;100775.75;;;6.16;100.00
20455;BME280;10386;54.314;10.022;2024-02-26T12:06:39;100797.88;;;6.38;100.00
20455;BME280;10386;54.314;10.022;2024-02-26T12:09:07;100999.00;;;6.42;100.00
20455;BME280;10386;54.314;10.022;2024-02-26T12:11:38;101011.19;;;6.49;100.00
20455;BME280;10386;54.314;10.022;2024-02-26T12:14:07;101008.97;;;6.57;100.00
20455;BME280;10386;54.314;10.022;2024-02-26T12:16:39;101023.34;;;6.57;100.00
20455;BME280;10386;54.314;10.022;2024-02-26T12:19:07;101091.31;;;6.47;100.00
20455;BME280;10386;54.314;10.022;2024-02-26T12:21:36;101199.03;;;6.50;100.00
20455;BME280;10386;54.314;10.022;2024-02-26T12:24:14;101223.19;;;6.70;100.00
20455;BME280;10386;54.314;10.022;2024-02-26T12:26:42;101253.63;;;6.55;100.00
20455;BME280;10386;54.314;10.022;2024-02-26T12:29:08;101266.75;;;6.81;100.00
20455;BME280;10386;54.314;10.022;2024-02-26T12:31:36;101281.59;;;6.89;100.00
20455;BME280;10386;54.314;10.022;2024-02-26T12:34:04;101302.97;;;6.93;100.00
20455;BME280;10386;54.314;10.022;2024-02-26T12:36:34;101323.75;;;6.91;100.00
20455;BME280;10386;54.314;10.022;2024-02-26T12:39:02;101318.06;;;6.79;100.00
20455;BME280;10386;54.314;10.022;2024-02-26T12:41:29;101346.63;;;6.65;100.00
20455;BME280;10386;54.314;10.022;2024-02-26T12:43:57;101382.06;;;6.76;100.00
20455;BME280;10386;54.314;10.022;2024-02-26T12:46:25;101419.28;;;6.69;100.00
20455;BME280;10386;54.314;10.022;2024-02-26T12:48:52;101561.19;;;6.73;100.00
20455;BME280;10386;54.314;10.022;2024-02-26T12:51:21;101580.09;;;6.73;100.00
20455;BME280;10386;54.314;10.022;2024-02-26T12:53:49;101615.81;;;6.58;100.00
20455;BME280;10386;54.314;10.022;2024-02-26T12:56:17;101632.34;;;6.71;100.00